Aviation Digital Data Service (ADDS)

Output produced by METARs form (1946 UTC 31 January 2023)
found at http://www.aviationweather.gov/metar/data/
 
VTBS 311930Z 21002KT 5000 HZ NSC 23/16 Q1010 NOSIG
VTBS 311900Z 20001KT 6000 NSC 23/15 Q1010 NOSIG
VTBS 311830Z 21002KT 6000 NSC 23/15 Q1011 NOSIG
VTBS 311800Z 21001KT 7000 NSC 23/15 Q1011 NOSIG
VTBS 311730Z 00000KT 8000 NSC 23/16 Q1011 NOSIG
VTBS 311700Z 25002KT 8000 NSC 24/15 Q1011 NOSIG
VTBS 311630Z 25002KT 8000 NSC 24/15 Q1011 NOSIG
VTBS 311600Z 21003KT 8000 NSC 25/15 Q1011 NOSIG
VTBS 311530Z VRB01KT 8000 NSC 26/15 Q1011 NOSIG
VTBS 311500Z 13004KT 080V190 8000 NSC 26/16 Q1011 NOSIG
VTBS 311430Z VRB02KT 9000 NSC 26/14 Q1011 NOSIG
VTBS 311400Z 30003KT 9000 NSC 27/15 Q1011 NOSIG
VTBS 311330Z 31005KT 9000 NSC 27/15 Q1010 NOSIG
VTBS 311300Z 30005KT 9000 NSC 28/15 Q1010 NOSIG
VTBS 311230Z 24003KT CAVOK 28/15 Q1010 NOSIG
VTBS 311200Z 06003KT 030V100 9000 NSC 29/13 Q1009 NOSIG
VTBS 311130Z 06005KT 020V090 9000 NSC 29/13 Q1009 NOSIG
VTBS 311100Z 09005KT 9000 NSC 29/14 Q1009 NOSIG
VTBS 311030Z 09006KT 9000 NSC 30/13 Q1009 NOSIG
VTBS 311000Z 09006KT 050V120 9000 NSC 30/13 Q1009 NOSIG
VTBS 310930Z 11006KT 070V150 9000 NSC 30/13 Q1009 NOSIG
VTBS 310900Z 10006KT 050V150 9000 NSC 30/14 Q1009 NOSIG
VTBS 310830Z 11006KT 080V150 9000 NSC 30/13 Q1009 NOSIG
VTBS 310800Z 11007G17KT 080V150 9000 NSC 30/13 Q1009 NOSIG
VTBS 310730Z 10004KT 040V200 9000 NSC 30/12 Q1010 NOSIG
VTBS 310700Z VRB03KT CAVOK 30/12 Q1010 NOSIG
VTBS 310630Z VRB05KT CAVOK 30/12 Q1011 NOSIG
VTBS 310600Z 05005G16KT 360V100 CAVOK 29/12 Q1012 NOSIG
VTBS 310530Z 03006KT 340V090 CAVOK 29/11 Q1013 NOSIG
VTBS 310500Z 07005KT 360V110 CAVOK 29/11 Q1013 NOSIG
VTBS 310430Z VRB06KT CAVOK 28/10 Q1014 NOSIG
VTBS 310400Z 07006KT 030V120 9000 NSC 27/10 Q1014 NOSIG
VTBS 310330Z 08006KT 050V110 9000 NSC 27/10 Q1014 NOSIG
VTBS 310300Z VRB03KT 9000 NSC 26/09 Q1014 NOSIG
VTBS 310230Z VRB02KT 9000 NSC 25/11 Q1014 NOSIG
VTBS 310200Z VRB02KT 9000 NSC 23/12 Q1014 NOSIG
VTBS 310130Z VRB02KT 9000 NSC 22/12 Q1014 NOSIG
VTBS 310100Z 34003KT 9000 NSC 21/12 Q1014 NOSIG
VTBS 310030Z VRB02KT 9000 NSC 20/12 Q1013 NOSIG
VTBS 310000Z VRB02KT 9000 NSC 20/12 Q1013 NOSIG
VTBS 302330Z 34003KT 9000 NSC 20/12 Q1012 NOSIG
VTBS 302300Z 34003KT 9000 NSC 20/12 Q1012 NOSIG
VTBS 302230Z 33003KT 9000 NSC 20/12 Q1012 NOSIG
VTBS 302200Z 36004KT 9000 NSC 20/12 Q1012 NOSIG
VTBS 302130Z 34002KT 9000 NSC 21/11 Q1012 NOSIG
VTBS 302100Z 32001KT 9999 FEW030 21/11 Q1012 NOSIG
VTBS 302030Z 34002KT 9999 FEW030 21/11 Q1012 NOSIG
VTBS 302000Z 34003KT 9999 FEW030 22/11 Q1012 NOSIG
VTBS 301930Z 36002KT 9999 FEW030 21/11 Q1012 NOSIG
VTBS 301900Z 34003KT 9999 FEW030 22/10 Q1013 NOSIG
TAF VTBS 311700Z 3118/0124 32005KT 8000 NSC 
     BECMG 3123/0101 03005KT 
     BECMG 0106/0108 09008KT 
     BECMG 0114/0116 31005KT